createdAt,value
2023-02-02T00:00:00.353Z,9.19
2023-02-02T00:01:00.418Z,9.19
2023-02-02T00:02:00.974Z,9.24
2023-02-02T00:03:00.392Z,9.24
2023-02-02T00:04:00.638Z,9.24
2023-02-02T00:05:00.363Z,9.24
2023-02-02T00:06:00.348Z,9.24
2023-02-02T00:07:00.963Z,9.17
2023-02-02T00:08:00.350Z,9.17
2023-02-02T00:09:01.574Z,9.17
2023-02-02T00:10:00.418Z,9.17
2023-02-02T00:11:00.363Z,9.17
2023-02-02T00:12:00.490Z,9.11
2023-02-02T00:13:00.349Z,9.11
2023-02-02T00:14:00.341Z,9.11
2023-02-02T00:15:00.355Z,9.11
2023-02-02T00:16:10.352Z,9.09
2023-02-02T00:17:00.451Z,9.09
2023-02-02T00:18:00.408Z,9.09
2023-02-02T00:19:02.599Z,9.09
2023-02-02T00:20:00.351Z,9.09
2023-02-02T00:21:00.362Z,9.09
2023-02-02T00:22:00.451Z,8.99
2023-02-02T00:23:00.721Z,8.99
2023-02-02T00:24:00.520Z,8.99
2023-02-02T00:25:00.455Z,8.99
2023-02-02T00:26:00.368Z,8.99
2023-02-02T00:27:00.431Z,8.96
2023-02-02T00:28:00.439Z,8.96
2023-02-02T00:29:00.721Z,8.96
2023-02-02T00:30:00.350Z,8.96
2023-02-02T00:31:00.498Z,8.96
2023-02-02T00:32:00.396Z,8.97
2023-02-02T00:33:00.350Z,8.97
2023-02-02T00:34:00.413Z,8.97
2023-02-02T00:35:00.508Z,8.97
2023-02-02T00:36:00.457Z,8.97
2023-02-02T00:37:00.351Z,8.88
2023-02-02T00:38:00.846Z,8.88
2023-02-02T00:39:00.488Z,8.88
2023-02-02T00:40:00.355Z,8.88
2023-02-02T00:41:00.383Z,8.88
2023-02-02T00:42:00.426Z,8.87
2023-02-02T00:43:00.353Z,8.87
2023-02-02T00:44:00.418Z,8.87
2023-02-02T00:45:00.458Z,8.87
2023-02-02T00:46:00.677Z,8.87
2023-02-02T00:47:00.810Z,8.83
2023-02-02T00:48:00.346Z,8.83
2023-02-02T00:49:00.376Z,8.83
2023-02-02T00:50:00.372Z,8.83
2023-02-02T00:51:00.406Z,8.83
2023-02-02T00:52:00.603Z,8.81
2023-02-02T00:53:00.393Z,8.81
2023-02-02T00:54:00.373Z,8.81
2023-02-02T00:55:00.349Z,8.81
2023-02-02T00:56:00.508Z,8.81
2023-02-02T00:57:00.356Z,8.73
2023-02-02T00:58:00.400Z,8.73
2023-02-02T00:59:00.361Z,8.73
2023-02-02T01:00:00.452Z,8.73
2023-02-02T01:01:00.641Z,8.73
2023-02-02T01:02:00.408Z,8.68
2023-02-02T01:03:00.373Z,8.68
2023-02-02T01:04:00.887Z,8.68
2023-02-02T01:05:00.645Z,8.68
2023-02-02T01:06:00.345Z,8.68
2023-02-02T01:07:00.483Z,8.60
2023-02-02T01:08:00.390Z,8.60
2023-02-02T01:09:00.395Z,8.60
2023-02-02T01:10:00.380Z,8.60
2023-02-02T01:11:00.524Z,8.60
2023-02-02T01:12:00.344Z,8.53
2023-02-02T01:13:00.757Z,8.53
2023-02-02T01:14:00.360Z,8.53
2023-02-02T01:15:00.796Z,8.53
2023-02-02T01:16:01.189Z,8.53
2023-02-02T01:17:00.414Z,8.42
2023-02-02T01:18:00.352Z,8.42
2023-02-02T01:19:00.387Z,8.42
2023-02-02T01:20:00.373Z,8.42
2023-02-02T01:21:02.287Z,8.42
2023-02-02T01:22:01.844Z,8.36
2023-02-02T01:23:00.344Z,8.36
2023-02-02T01:24:00.376Z,8.36
2023-02-02T01:25:00.587Z,8.36
2023-02-02T01:26:01.525Z,8.36
2023-02-02T01:27:00.436Z,8.31
2023-02-02T01:28:00.377Z,8.31
2023-02-02T01:29:00.343Z,8.31
2023-02-02T01:30:00.359Z,8.31
2023-02-02T01:31:05.228Z,8.30
2023-02-02T01:32:00.760Z,8.30
2023-02-02T01:33:00.360Z,8.30
2023-02-02T01:34:00.361Z,8.30
2023-02-02T01:35:00.383Z,8.30
2023-02-02T01:36:02.599Z,8.30
2023-02-02T01:37:00.378Z,8.29
2023-02-02T01:38:00.382Z,8.29
2023-02-02T01:39:00.660Z,8.29
2023-02-02T01:40:00.432Z,8.29
2023-02-02T01:41:02.069Z,8.29
2023-02-02T01:42:00.388Z,8.32
2023-02-02T01:43:00.343Z,8.32
2023-02-02T01:44:02.141Z,8.32
2023-02-02T01:45:05.922Z,8.32
2023-02-02T01:46:00.361Z,8.32
2023-02-02T01:47:00.359Z,8.35
2023-02-02T01:48:00.445Z,8.35
2023-02-02T01:49:00.333Z,8.35
2023-02-02T01:50:00.856Z,8.35
2023-02-02T01:51:02.908Z,8.35
2023-02-02T01:52:00.532Z,8.38
2023-02-02T01:53:01.605Z,8.38
2023-02-02T01:54:01.627Z,8.38
2023-02-02T01:55:02.927Z,8.38
2023-02-02T01:56:02.411Z,8.38
2023-02-02T01:57:04.617Z,8.43
2023-02-02T01:58:04.095Z,8.43
2023-02-02T01:59:01.292Z,8.43
2023-02-02T02:00:01.750Z,8.43
2023-02-02T02:01:00.437Z,8.43
2023-02-02T02:02:01.081Z,8.53
2023-02-02T02:03:03.827Z,8.53
2023-02-02T02:04:00.533Z,8.53
2023-02-02T02:05:02.088Z,8.53
2023-02-02T02:06:02.493Z,8.53
2023-02-02T02:07:00.823Z,8.50
2023-02-02T02:08:04.818Z,8.50
2023-02-02T02:09:03.048Z,8.50
2023-02-02T02:10:00.367Z,8.50
2023-02-02T02:11:00.359Z,8.50
2023-02-02T02:12:00.362Z,8.59
2023-02-02T02:13:00.389Z,8.59
2023-02-02T02:14:02.008Z,8.59
2023-02-02T02:15:00.384Z,8.59
2023-02-02T02:16:05.936Z,8.61
2023-02-02T02:17:10.274Z,8.61
2023-02-02T02:18:00.345Z,8.61
2023-02-02T02:19:08.831Z,8.61
2023-02-02T02:20:10.259Z,8.61
2023-02-02T02:21:10.261Z,8.60
2023-02-02T02:22:07.801Z,8.60
2023-02-02T02:23:07.746Z,8.60
2023-02-02T02:24:00.328Z,8.60
2023-02-02T02:25:08.953Z,8.60
2023-02-02T02:26:10.261Z,8.61
2023-02-02T02:27:01.354Z,8.61
2023-02-02T02:28:10.275Z,8.61
2023-02-02T02:29:07.679Z,8.61
2023-02-02T02:30:10.296Z,8.61
2023-02-02T02:31:01.502Z,8.61
2023-02-02T02:32:10.273Z,8.60
2023-02-02T02:33:10.263Z,8.60
2023-02-02T02:34:06.483Z,8.60
2023-02-02T02:35:07.871Z,8.60
2023-02-02T02:36:01.364Z,8.60
2023-02-02T02:37:08.612Z,8.61
2023-02-02T02:38:08.114Z,8.61
2023-02-02T02:39:03.668Z,8.61
2023-02-02T02:40:05.778Z,8.61
2023-02-02T02:41:02.825Z,8.61
2023-02-02T02:42:04.496Z,8.51
2023-02-02T02:43:04.147Z,8.51
2023-02-02T02:44:02.912Z,8.51
2023-02-02T02:45:01.647Z,8.51
2023-02-02T02:46:01.219Z,8.51
2023-02-02T02:47:00.826Z,8.41
2023-02-02T02:48:01.716Z,8.41
2023-02-02T02:49:00.826Z,8.41
2023-02-02T02:50:00.399Z,8.41
2023-02-02T02:51:08.421Z,8.43
2023-02-02T02:52:00.363Z,8.43
2023-02-02T02:53:10.292Z,8.43
2023-02-02T02:54:00.534Z,8.43
2023-02-02T02:55:01.096Z,8.43
2023-02-02T02:56:00.335Z,8.43
2023-02-02T02:57:10.262Z,8.44
2023-02-02T02:58:06.131Z,8.44
2023-02-02T02:59:09.691Z,8.44
2023-02-02T03:00:00.352Z,8.44
2023-02-02T03:01:09.004Z,8.47
2023-02-02T03:02:10.269Z,8.47
2023-02-02T03:03:10.267Z,8.47
2023-02-02T03:04:00.338Z,8.47
2023-02-02T03:05:06.850Z,8.47
2023-02-02T03:06:10.273Z,8.47
2023-02-02T03:07:03.620Z,8.47
2023-02-02T03:08:07.787Z,8.47
2023-02-02T03:09:03.958Z,8.47
2023-02-02T03:10:02.237Z,8.47
2023-02-02T03:11:01.936Z,8.47
2023-02-02T03:12:00.812Z,8.46
2023-02-02T03:13:00.689Z,8.46
2023-02-02T03:14:00.947Z,8.46
2023-02-02T03:15:03.448Z,8.46
2023-02-02T03:16:00.409Z,8.46
2023-02-02T03:17:00.373Z,8.45
2023-02-02T03:18:00.376Z,8.45
2023-02-02T03:19:00.502Z,8.45
2023-02-02T03:20:00.368Z,8.45
2023-02-02T03:21:00.443Z,8.45
2023-02-02T03:22:00.346Z,8.34
2023-02-02T03:23:00.383Z,8.34
2023-02-02T03:24:00.355Z,8.34
2023-02-02T03:25:00.361Z,8.34
2023-02-02T03:26:00.627Z,8.34
2023-02-02T03:27:00.439Z,8.35
2023-02-02T03:28:00.568Z,8.35
2023-02-02T03:29:00.847Z,8.35
2023-02-02T03:30:00.367Z,8.35
2023-02-02T03:31:00.860Z,8.35
2023-02-02T03:32:00.452Z,8.26
2023-02-02T03:33:00.439Z,8.26
2023-02-02T03:34:00.373Z,8.26
2023-02-02T03:35:00.359Z,8.26
2023-02-02T03:36:00.368Z,8.26
2023-02-02T03:37:00.347Z,8.31
2023-02-02T03:38:00.397Z,8.31
2023-02-02T03:39:00.385Z,8.31
2023-02-02T03:40:00.352Z,8.31
2023-02-02T03:41:00.345Z,8.31
2023-02-02T03:42:00.450Z,8.24
2023-02-02T03:43:00.529Z,8.24
2023-02-02T03:44:00.394Z,8.24
2023-02-02T03:45:00.460Z,8.24
2023-02-02T03:46:01.608Z,8.24
2023-02-02T03:47:00.374Z,8.25
2023-02-02T03:48:02.449Z,8.25
2023-02-02T03:49:00.343Z,8.25
2023-02-02T03:50:00.376Z,8.25
2023-02-02T03:51:03.763Z,8.25
2023-02-02T03:52:00.363Z,8.21
2023-02-02T03:53:00.392Z,8.21
2023-02-02T03:54:00.386Z,8.21
2023-02-02T03:55:00.352Z,8.21
2023-02-02T03:56:00.374Z,8.21
2023-02-02T03:57:00.355Z,8.20
2023-02-02T03:58:00.357Z,8.20
2023-02-02T03:59:00.438Z,8.20
2023-02-02T04:00:00.605Z,8.20
2023-02-02T04:01:01.975Z,8.20
2023-02-02T04:02:00.385Z,8.23
2023-02-02T04:03:00.513Z,8.23
2023-02-02T04:04:00.367Z,8.23
2023-02-02T04:05:00.367Z,8.23
2023-02-02T04:06:00.347Z,8.23
2023-02-02T04:07:00.342Z,8.22
2023-02-02T04:08:00.362Z,8.22
2023-02-02T04:09:00.555Z,8.22
2023-02-02T04:10:00.384Z,8.22
2023-02-02T04:11:00.438Z,8.22
2023-02-02T04:12:00.356Z,8.19
2023-02-02T04:13:00.406Z,8.19
2023-02-02T04:14:00.348Z,8.19
2023-02-02T04:15:00.343Z,8.19
2023-02-02T04:16:00.537Z,8.19
2023-02-02T04:17:00.381Z,8.15
2023-02-02T04:18:00.357Z,8.15
2023-02-02T04:19:00.362Z,8.15
2023-02-02T04:20:01.081Z,8.15
2023-02-02T04:21:00.745Z,8.15
2023-02-02T04:22:00.380Z,8.14
2023-02-02T04:23:00.357Z,8.14
2023-02-02T04:24:00.400Z,8.14
2023-02-02T04:25:00.357Z,8.14
2023-02-02T04:26:00.534Z,8.14
2023-02-02T04:27:00.378Z,8.09
2023-02-02T04:28:00.344Z,8.09
2023-02-02T04:29:00.388Z,8.09
2023-02-02T04:30:00.394Z,8.09
2023-02-02T04:31:00.418Z,8.09
2023-02-02T04:32:00.380Z,8.05
2023-02-02T04:33:00.344Z,8.05
2023-02-02T04:34:00.480Z,8.05
2023-02-02T04:35:00.381Z,8.05
2023-02-02T04:36:00.361Z,8.05
2023-02-02T04:37:00.369Z,8.02
2023-02-02T04:38:00.390Z,8.02
2023-02-02T04:39:00.356Z,8.02
2023-02-02T04:40:00.387Z,8.02
2023-02-02T04:41:06.113Z,8.00
2023-02-02T04:42:00.356Z,8.00
2023-02-02T04:43:00.362Z,8.00
2023-02-02T04:44:00.371Z,8.00
2023-02-02T04:45:00.373Z,8.00
2023-02-02T04:46:00.632Z,8.00
2023-02-02T04:47:00.334Z,7.97
2023-02-02T04:48:00.635Z,7.97
2023-02-02T04:49:00.369Z,7.97
2023-02-02T04:50:00.336Z,7.97
2023-02-02T04:51:01.597Z,7.97
2023-02-02T04:52:00.376Z,7.99
2023-02-02T04:53:00.356Z,7.99
2023-02-02T04:54:00.392Z,7.99
2023-02-02T04:55:00.409Z,7.99
2023-02-02T04:56:06.415Z,7.95
2023-02-02T04:57:00.454Z,7.95
2023-02-02T04:58:00.439Z,7.95
2023-02-02T04:59:00.532Z,7.95
2023-02-02T05:00:00.379Z,7.95
2023-02-02T05:01:00.662Z,7.95
2023-02-02T05:02:00.736Z,7.99
2023-02-02T05:03:00.380Z,7.99
2023-02-02T05:04:00.353Z,7.99
2023-02-02T05:05:00.360Z,7.99
2023-02-02T05:06:01.282Z,7.99
2023-02-02T05:07:00.382Z,7.98
2023-02-02T05:08:00.435Z,7.98
2023-02-02T05:09:00.346Z,7.98
2023-02-02T05:10:00.384Z,7.98
2023-02-02T05:11:04.537Z,7.98
2023-02-02T05:12:00.364Z,7.93
2023-02-02T05:13:00.358Z,7.93
2023-02-02T05:14:00.364Z,7.93
2023-02-02T05:15:00.372Z,7.93
2023-02-02T05:16:00.447Z,7.93
2023-02-02T05:17:00.431Z,7.97
2023-02-02T05:18:00.419Z,7.97
2023-02-02T05:19:00.358Z,7.97
2023-02-02T05:20:00.358Z,7.97
2023-02-02T05:21:02.023Z,7.97
2023-02-02T05:22:00.419Z,7.92
2023-02-02T05:23:00.356Z,7.92
2023-02-02T05:24:00.385Z,7.92
2023-02-02T05:25:00.344Z,7.92
2023-02-02T05:26:00.602Z,7.92
2023-02-02T05:27:00.420Z,7.90
2023-02-02T05:28:00.446Z,7.90
2023-02-02T05:29:00.461Z,7.90
2023-02-02T05:30:00.465Z,7.90
2023-02-02T05:31:04.634Z,7.90
2023-02-02T05:32:00.480Z,7.92
2023-02-02T05:33:00.402Z,7.92
2023-02-02T05:34:00.349Z,7.92
2023-02-02T05:35:00.364Z,7.92
2023-02-02T05:36:00.354Z,7.92
2023-02-02T05:37:00.364Z,7.87
2023-02-02T05:38:00.396Z,7.87
2023-02-02T05:39:00.363Z,7.87
2023-02-02T05:40:00.394Z,7.87
2023-02-02T05:41:00.524Z,7.87
2023-02-02T05:42:00.393Z,7.84
2023-02-02T05:43:00.354Z,7.84
2023-02-02T05:44:00.666Z,7.84
2023-02-02T05:45:00.597Z,7.84
2023-02-02T05:46:00.624Z,7.84
2023-02-02T05:47:00.362Z,7.82
2023-02-02T05:48:00.378Z,7.82
2023-02-02T05:49:00.382Z,7.82
2023-02-02T05:50:00.409Z,7.82
2023-02-02T05:51:10.275Z,7.79
2023-02-02T05:52:00.414Z,7.79
2023-02-02T05:53:00.369Z,7.79
2023-02-02T05:54:01.134Z,7.79
2023-02-02T05:55:00.576Z,7.79
2023-02-02T05:56:00.485Z,7.79
2023-02-02T05:57:00.350Z,7.81
2023-02-02T05:58:00.397Z,7.81
2023-02-02T05:59:00.354Z,7.81
2023-02-02T06:00:00.389Z,7.81
2023-02-02T06:01:00.344Z,7.81
2023-02-02T06:02:00.361Z,7.80
2023-02-02T06:03:00.406Z,7.80
2023-02-02T06:04:00.428Z,7.80
2023-02-02T06:05:00.363Z,7.80
2023-02-02T06:06:00.376Z,7.80
2023-02-02T06:07:00.385Z,7.77
2023-02-02T06:08:00.367Z,7.77
2023-02-02T06:09:01.053Z,7.77
2023-02-02T06:10:00.375Z,7.77
2023-02-02T06:11:07.597Z,7.72
2023-02-02T06:12:00.364Z,7.72
2023-02-02T06:13:00.358Z,7.72
2023-02-02T06:14:00.479Z,7.72
2023-02-02T06:15:00.395Z,7.72
2023-02-02T06:16:00.470Z,7.72
2023-02-02T06:17:00.450Z,7.70
2023-02-02T06:18:00.634Z,7.70
2023-02-02T06:19:00.361Z,7.70
2023-02-02T06:20:00.355Z,7.70
2023-02-02T06:21:01.167Z,7.70
2023-02-02T06:22:00.371Z,7.68
2023-02-02T06:23:00.375Z,7.68
2023-02-02T06:24:00.365Z,7.68
2023-02-02T06:25:00.357Z,7.68
2023-02-02T06:26:00.563Z,7.68
2023-02-02T06:27:00.340Z,7.68
2023-02-02T06:28:00.404Z,7.68
2023-02-02T06:29:00.362Z,7.68
2023-02-02T06:30:00.507Z,7.68
2023-02-02T06:31:08.789Z,7.64
2023-02-02T06:32:00.417Z,7.64
2023-02-02T06:33:00.359Z,7.64
2023-02-02T06:35:00.380Z,7.64
2023-02-02T06:36:02.271Z,7.64
2023-02-02T06:37:00.358Z,7.67
2023-02-02T06:38:00.399Z,7.67
2023-02-02T06:40:00.371Z,7.67
2023-02-02T06:41:01.013Z,7.67
2023-02-02T06:42:08.787Z,7.62
2023-02-02T06:43:01.443Z,7.62
2023-02-02T06:44:00.565Z,7.62
2023-02-02T06:45:00.646Z,7.62
2023-02-02T06:46:00.369Z,7.62
2023-02-02T06:47:00.375Z,7.61
2023-02-02T06:48:00.370Z,7.61
2023-02-02T06:49:00.388Z,7.61
2023-02-02T06:50:00.347Z,7.61
2023-02-02T06:51:00.355Z,7.61
2023-02-02T06:52:00.350Z,7.60
2023-02-02T06:53:00.342Z,7.60
2023-02-02T06:54:00.455Z,7.60
2023-02-02T06:55:00.343Z,7.60
2023-02-02T06:56:02.290Z,7.60
2023-02-02T06:57:00.372Z,7.58
2023-02-02T06:58:00.708Z,7.58
2023-02-02T06:59:00.351Z,7.58
2023-02-02T07:00:00.374Z,7.58
2023-02-02T07:01:03.346Z,7.58
2023-02-02T07:02:00.390Z,7.57
2023-02-02T07:03:00.475Z,7.57
2023-02-02T07:04:00.353Z,7.57
2023-02-02T07:05:00.419Z,7.57
2023-02-02T07:06:10.283Z,7.59
2023-02-02T07:07:00.361Z,7.59
2023-02-02T07:08:00.356Z,7.59
2023-02-02T07:09:02.991Z,7.59
2023-02-02T07:10:00.359Z,7.59
2023-02-02T07:11:13.548Z,7.59
2023-02-02T07:12:00.420Z,7.60
2023-02-02T07:13:00.368Z,7.60
2023-02-02T07:14:00.370Z,7.60
2023-02-02T07:15:00.356Z,7.60
2023-02-02T07:16:01.639Z,7.60
2023-02-02T07:17:00.413Z,7.62
2023-02-02T07:18:00.589Z,7.62
2023-02-02T07:19:00.347Z,7.62
2023-02-02T07:20:00.410Z,7.62
2023-02-02T07:21:00.397Z,7.62
2023-02-02T07:22:00.371Z,7.68
2023-02-02T07:23:01.597Z,7.68
2023-02-02T07:24:02.076Z,7.68
2023-02-02T07:25:00.339Z,7.68
2023-02-02T07:26:04.193Z,7.68
2023-02-02T07:27:00.478Z,7.63
2023-02-02T07:28:00.440Z,7.63
2023-02-02T07:29:00.487Z,7.63
2023-02-02T07:30:00.418Z,7.63
2023-02-02T07:31:00.863Z,7.63
2023-02-02T07:32:00.456Z,7.69
2023-02-02T07:33:00.339Z,7.69
2023-02-02T07:34:00.354Z,7.69
2023-02-02T07:35:00.373Z,7.69
2023-02-02T07:36:00.732Z,7.69
2023-02-02T07:37:00.359Z,7.73
2023-02-02T07:38:00.344Z,7.73
2023-02-02T07:39:00.783Z,7.73
2023-02-02T07:40:00.368Z,7.73
2023-02-02T07:41:00.708Z,7.73
2023-02-02T07:42:00.395Z,7.73
2023-02-02T07:43:00.351Z,7.73
2023-02-02T07:44:00.376Z,7.73
2023-02-02T07:45:00.353Z,7.73
2023-02-02T07:46:00.880Z,7.73
2023-02-02T07:47:00.372Z,7.79
2023-02-02T07:48:00.908Z,7.79
2023-02-02T07:49:00.387Z,7.79
2023-02-02T07:50:00.388Z,7.79
2023-02-02T07:51:01.677Z,7.79
2023-02-02T07:52:00.391Z,7.79
2023-02-02T07:53:00.402Z,7.79
2023-02-02T07:54:00.357Z,7.79
2023-02-02T07:55:13.988Z,7.79
2023-02-02T07:56:04.529Z,7.79
2023-02-02T07:57:00.339Z,7.82
2023-02-02T07:58:00.338Z,7.82
2023-02-02T07:59:00.342Z,7.82
2023-02-02T08:00:00.393Z,7.82
2023-02-02T08:01:04.700Z,7.82
2023-02-02T08:02:00.386Z,7.89
2023-02-02T08:03:00.450Z,7.89
2023-02-02T08:04:00.460Z,7.89
2023-02-02T08:05:00.484Z,7.89
2023-02-02T08:06:00.611Z,7.89
2023-02-02T08:07:00.380Z,7.94
2023-02-02T08:08:00.345Z,7.94
2023-02-02T08:09:01.998Z,7.94
2023-02-02T08:10:00.347Z,7.94
2023-02-02T08:11:00.355Z,7.94
2023-02-02T08:12:00.365Z,7.96
2023-02-02T08:13:00.341Z,7.96
2023-02-02T08:14:01.206Z,7.96
2023-02-02T08:15:00.351Z,7.96
2023-02-02T08:16:00.381Z,7.96
2023-02-02T08:17:00.377Z,8.04
2023-02-02T08:18:00.351Z,8.04
2023-02-02T08:19:00.442Z,8.04
2023-02-02T08:20:00.356Z,8.04
2023-02-02T08:21:01.014Z,8.04
2023-02-02T08:22:00.526Z,8.12
2023-02-02T08:23:00.345Z,8.12
2023-02-02T08:24:00.374Z,8.12
2023-02-02T08:25:00.355Z,8.12
2023-02-02T08:26:09.482Z,8.12
2023-02-02T08:27:00.428Z,8.12
2023-02-02T08:28:00.413Z,8.12
2023-02-02T08:29:02.035Z,8.12
2023-02-02T08:30:00.389Z,8.12
2023-02-02T08:31:05.203Z,8.12
2023-02-02T08:32:00.421Z,8.21
2023-02-02T08:33:00.360Z,8.21
2023-02-02T08:34:00.531Z,8.21
2023-02-02T08:35:00.365Z,8.21
2023-02-02T08:36:00.924Z,8.21
2023-02-02T08:37:00.367Z,8.30
2023-02-02T08:38:00.347Z,8.30
2023-02-02T08:39:03.022Z,8.30
2023-02-02T08:40:00.575Z,8.30
2023-02-02T08:41:04.432Z,8.30
2023-02-02T08:42:00.367Z,8.40
2023-02-02T08:43:00.349Z,8.40
2023-02-02T08:44:00.360Z,8.40
2023-02-02T08:46:00.374Z,8.40
2023-02-02T08:46:05.270Z,8.40
2023-02-02T08:47:00.409Z,8.46
2023-02-02T08:48:11.364Z,8.46
2023-02-02T08:49:00.589Z,8.46
2023-02-02T08:50:00.358Z,8.46
2023-02-02T08:51:00.653Z,8.46
2023-02-02T08:52:00.393Z,8.49
2023-02-02T08:53:00.489Z,8.49
2023-02-02T08:54:00.995Z,8.49
2023-02-02T08:55:00.348Z,8.49
2023-02-02T08:56:01.366Z,8.49
2023-02-02T08:57:00.351Z,8.57
2023-02-02T08:58:00.355Z,8.57
2023-02-02T08:59:00.400Z,8.57
2023-02-02T09:00:00.456Z,8.57
2023-02-02T09:01:04.340Z,8.57
2023-02-02T09:02:00.370Z,8.74
2023-02-02T09:03:00.456Z,8.74
2023-02-02T09:04:02.075Z,8.74
2023-02-02T09:05:00.357Z,8.74
2023-02-02T09:06:09.960Z,8.86
2023-02-02T09:07:00.367Z,8.86
2023-02-02T09:08:00.352Z,8.86
2023-02-02T09:09:00.762Z,8.86
2023-02-02T09:10:00.372Z,8.86
2023-02-02T09:11:04.970Z,8.86
2023-02-02T09:12:00.366Z,9.06
2023-02-02T09:13:00.399Z,9.06
2023-02-02T09:14:00.620Z,9.06
2023-02-02T09:15:00.371Z,9.06
2023-02-02T09:16:00.726Z,9.06
2023-02-02T09:17:00.462Z,9.22
2023-02-02T09:18:00.358Z,9.22
2023-02-02T09:19:00.401Z,9.22
2023-02-02T09:20:00.380Z,9.22
2023-02-02T09:21:01.872Z,9.22
2023-02-02T09:22:00.368Z,9.33
2023-02-02T09:23:00.364Z,9.33
2023-02-02T09:24:00.364Z,9.33
2023-02-02T09:25:00.426Z,9.33
2023-02-02T09:26:08.945Z,9.44
2023-02-02T09:27:00.477Z,9.44
2023-02-02T09:28:00.357Z,9.44
2023-02-02T09:29:01.685Z,9.44
2023-02-02T09:30:00.353Z,9.44
2023-02-02T09:31:00.861Z,9.44
2023-02-02T09:32:00.395Z,9.53
2023-02-02T09:33:00.348Z,9.53
2023-02-02T09:34:01.145Z,9.53
2023-02-02T09:35:00.365Z,9.53
2023-02-02T09:36:04.218Z,9.53
2023-02-02T09:37:00.392Z,9.61
2023-02-02T09:38:00.365Z,9.61
2023-02-02T09:39:00.369Z,9.61
2023-02-02T09:40:00.365Z,9.61
2023-02-02T09:41:00.756Z,9.61
2023-02-02T09:42:07.990Z,9.70
2023-02-02T09:43:04.060Z,9.70
2023-02-02T09:44:00.364Z,9.70
2023-02-02T09:45:10.271Z,9.70
2023-02-02T09:46:10.422Z,9.77
2023-02-02T09:47:00.363Z,9.77
2023-02-02T09:48:07.427Z,9.77
2023-02-02T09:49:02.377Z,9.77
2023-02-02T09:50:10.287Z,9.77
2023-02-02T09:51:04.922Z,9.77
2023-02-02T09:52:03.624Z,9.82
2023-02-02T09:53:07.555Z,9.82
2023-02-02T09:54:04.840Z,9.82
2023-02-02T09:55:10.292Z,9.82
2023-02-02T09:56:03.150Z,9.82
2023-02-02T09:57:01.830Z,9.86
2023-02-02T09:58:07.000Z,9.86
2023-02-02T09:59:17.689Z,9.86
2023-02-02T10:00:00.441Z,9.86
2023-02-02T10:01:10.289Z,9.96
2023-02-02T10:02:03.908Z,9.96
2023-02-02T10:03:03.385Z,9.96
2023-02-02T10:04:00.397Z,9.96
2023-02-02T10:05:05.781Z,9.96
2023-02-02T10:06:10.286Z,10.07
2023-02-02T10:07:05.506Z,10.07
2023-02-02T10:08:01.946Z,10.07
2023-02-02T10:09:05.031Z,10.07
2023-02-02T10:10:10.269Z,10.07
2023-02-02T10:11:04.285Z,10.07
2023-02-02T10:12:10.282Z,10.13
2023-02-02T10:13:10.288Z,10.13
2023-02-02T10:14:03.839Z,10.13
2023-02-02T10:15:00.406Z,10.13
2023-02-02T10:16:04.839Z,10.13
2023-02-02T10:17:05.415Z,10.25
2023-02-02T10:18:05.632Z,10.25
2023-02-02T10:19:02.137Z,10.25
2023-02-02T10:20:03.658Z,10.25
2023-02-02T10:21:02.558Z,10.25
2023-02-02T10:22:09.208Z,10.39
2023-02-02T10:23:10.280Z,10.39
2023-02-02T10:24:02.433Z,10.39
2023-02-02T10:25:00.462Z,10.39
2023-02-02T10:26:04.531Z,10.39
2023-02-02T10:27:03.439Z,10.47
2023-02-02T10:28:05.141Z,10.47
2023-02-02T10:29:00.434Z,10.47
2023-02-02T10:30:01.139Z,10.47
2023-02-02T10:31:00.885Z,10.47
2023-02-02T10:32:01.397Z,10.52
2023-02-02T10:33:04.584Z,10.52
2023-02-02T10:34:03.879Z,10.52
2023-02-02T10:35:13.470Z,10.52
2023-02-02T10:36:10.051Z,10.62
2023-02-02T10:37:03.708Z,10.62
2023-02-02T10:38:10.302Z,10.62
2023-02-02T10:39:10.279Z,10.62
2023-02-02T10:40:10.386Z,10.62
2023-02-02T10:41:05.758Z,10.62
2023-02-02T10:42:10.285Z,10.67
2023-02-02T10:43:10.288Z,10.67
2023-02-02T10:44:10.274Z,10.67
2023-02-02T10:45:02.708Z,10.67
2023-02-02T10:46:02.664Z,10.67
2023-02-02T10:47:02.867Z,10.70
2023-02-02T10:48:00.610Z,10.70
2023-02-02T10:49:10.289Z,10.70
2023-02-02T10:50:10.276Z,10.70
2023-02-02T10:51:10.286Z,10.83
2023-02-02T10:52:10.283Z,10.83
2023-02-02T10:53:05.624Z,10.83
2023-02-02T10:54:01.891Z,10.83
2023-02-02T10:55:07.940Z,10.83
2023-02-02T10:56:03.056Z,10.83
2023-02-02T10:57:03.986Z,10.87
2023-02-02T10:58:03.669Z,10.87
2023-02-02T10:59:05.017Z,10.87
2023-02-02T11:00:03.815Z,10.87
2023-02-02T11:01:00.480Z,10.87
2023-02-02T11:02:11.708Z,10.94
2023-02-02T11:03:00.624Z,10.94
2023-02-02T11:04:00.361Z,10.94
2023-02-02T11:05:00.460Z,10.94
2023-02-02T11:06:01.747Z,10.94
2023-02-02T11:07:01.590Z,11.04
2023-02-02T11:08:00.810Z,11.04
2023-02-02T11:09:00.349Z,11.04
2023-02-02T11:10:00.381Z,11.04
2023-02-02T11:11:10.309Z,11.09
2023-02-02T11:12:04.174Z,11.09
2023-02-02T11:13:02.128Z,11.09
2023-02-02T11:14:00.368Z,11.09
2023-02-02T11:15:03.453Z,11.09
2023-02-02T11:16:10.330Z,11.15
2023-02-02T11:17:02.403Z,11.15
2023-02-02T11:18:10.276Z,11.15
2023-02-02T11:19:00.381Z,11.15
2023-02-02T11:20:00.383Z,11.15
2023-02-02T11:21:00.353Z,11.15
2023-02-02T11:22:01.375Z,11.29
2023-02-02T11:23:01.426Z,11.29
2023-02-02T11:24:02.214Z,11.29
2023-02-02T11:25:02.124Z,11.29
2023-02-02T11:26:01.427Z,11.29
2023-02-02T11:27:02.049Z,11.28
2023-02-02T11:28:08.967Z,11.28
2023-02-02T11:29:01.234Z,11.28
2023-02-02T11:30:10.284Z,11.28
2023-02-02T11:31:00.876Z,11.28
2023-02-02T11:32:10.428Z,11.41
2023-02-02T11:33:10.279Z,11.41
2023-02-02T11:34:09.662Z,11.41
2023-02-02T11:35:01.350Z,11.41
2023-02-02T11:36:02.842Z,11.41
2023-02-02T11:37:02.249Z,11.40
2023-02-02T11:38:10.290Z,11.40
2023-02-02T11:39:10.293Z,11.40
2023-02-02T11:40:10.298Z,11.40
2023-02-02T11:41:00.335Z,11.40
2023-02-02T11:42:03.316Z,11.39
2023-02-02T11:43:03.002Z,11.39
2023-02-02T11:44:00.397Z,11.39
2023-02-02T11:45:00.480Z,11.39
2023-02-02T11:46:03.175Z,11.39
2023-02-02T11:47:02.170Z,11.40
2023-02-02T11:48:01.658Z,11.40
2023-02-02T11:49:03.321Z,11.40
2023-02-02T11:50:01.786Z,11.40
2023-02-02T11:51:00.863Z,11.40
2023-02-02T11:52:01.931Z,11.43
2023-02-02T11:53:00.375Z,11.43
2023-02-02T11:54:10.277Z,11.43
2023-02-02T11:55:01.508Z,11.43
2023-02-02T11:56:03.507Z,11.43
2023-02-02T11:57:01.960Z,11.39
2023-02-02T11:58:12.008Z,11.39
2023-02-02T11:59:00.347Z,11.39
2023-02-02T12:00:07.740Z,11.39
2023-02-02T12:01:01.141Z,11.39
2023-02-02T12:02:10.363Z,11.43
2023-02-02T12:03:00.410Z,11.43
2023-02-02T12:04:01.615Z,11.43
2023-02-02T12:05:10.292Z,11.43
2023-02-02T12:06:00.402Z,11.43
2023-02-02T12:07:00.349Z,11.47
2023-02-02T12:08:00.520Z,11.47
2023-02-02T12:09:01.506Z,11.47
2023-02-02T12:10:03.531Z,11.47
2023-02-02T12:11:01.841Z,11.47
2023-02-02T12:12:10.274Z,11.48
2023-02-02T12:13:10.297Z,11.48
2023-02-02T12:14:09.534Z,11.48
2023-02-02T12:15:01.380Z,11.48
2023-02-02T12:16:00.375Z,11.48
2023-02-02T12:17:10.269Z,11.51
2023-02-02T12:18:10.270Z,11.51
2023-02-02T12:19:10.273Z,11.51
2023-02-02T12:20:00.345Z,11.51
2023-02-02T12:21:10.400Z,11.54
2023-02-02T12:22:06.918Z,11.54
2023-02-02T12:23:10.267Z,11.54
2023-02-02T12:24:10.288Z,11.54
2023-02-02T12:25:01.385Z,11.54
2023-02-02T12:26:10.388Z,11.57
2023-02-02T12:27:07.961Z,11.57
2023-02-02T12:28:04.785Z,11.57
2023-02-02T12:29:10.277Z,11.57
2023-02-02T12:30:10.437Z,11.57
2023-02-02T12:31:01.416Z,11.57
2023-02-02T12:32:01.439Z,11.72
2023-02-02T12:33:06.211Z,11.72
2023-02-02T12:34:11.905Z,11.72
2023-02-02T12:35:01.358Z,11.72
2023-02-02T12:36:09.611Z,11.75
2023-02-02T12:37:07.608Z,11.75
2023-02-02T12:38:10.291Z,11.75
2023-02-02T12:39:03.619Z,11.75
2023-02-02T12:40:11.447Z,11.75
2023-02-02T12:41:10.444Z,11.76
2023-02-02T12:42:10.284Z,11.76
2023-02-02T12:43:10.438Z,11.76
2023-02-02T12:44:10.296Z,11.76
2023-02-02T12:45:07.730Z,11.76
2023-02-02T12:46:11.723Z,11.83
2023-02-02T12:47:10.373Z,11.83
2023-02-02T12:48:10.271Z,11.83
2023-02-02T12:49:07.803Z,11.83
2023-02-02T12:50:05.480Z,11.83
2023-02-02T12:51:00.337Z,11.83
2023-02-02T12:52:11.409Z,11.91
2023-02-02T12:53:10.286Z,11.91
2023-02-02T12:54:33.773Z,11.91
2023-02-02T12:55:06.255Z,11.91
2023-02-02T12:56:10.291Z,11.97
2023-02-02T12:57:10.300Z,11.97
2023-02-02T12:58:07.725Z,11.97
2023-02-02T12:59:10.327Z,11.97
2023-02-02T13:00:07.837Z,11.97
2023-02-02T13:01:06.237Z,11.97
2023-02-02T13:02:01.422Z,12.06
2023-02-02T13:03:08.135Z,12.06
2023-02-02T13:04:09.149Z,12.06
2023-02-02T13:05:10.291Z,12.06
2023-02-02T13:06:10.286Z,12.09
2023-02-02T13:07:00.333Z,12.09
2023-02-02T13:08:10.488Z,12.09
2023-02-02T13:09:05.692Z,12.09
2023-02-02T13:10:00.363Z,12.09
2023-02-02T13:11:05.272Z,12.09
2023-02-02T13:12:04.069Z,12.21
2023-02-02T13:13:03.366Z,12.21
2023-02-02T13:14:07.710Z,12.21